createdAt,value
2022-10-04T00:00:43.250Z,14.10
2022-10-04T00:03:36.245Z,13.30
2022-10-04T00:06:25.529Z,14.57
2022-10-04T00:09:19.105Z,11.30
2022-10-04T00:12:06.951Z,12.33
2022-10-04T00:14:58.737Z,11.97
2022-10-04T00:18:11.190Z,13.17
2022-10-04T00:21:01.957Z,11.90
2022-10-04T00:23:48.995Z,13.37
2022-10-04T00:26:35.859Z,10.13
2022-10-04T00:29:33.926Z,14.00
2022-10-04T00:32:26.993Z,14.57
2022-10-04T00:35:47.259Z,12.97
2022-10-04T00:38:34.326Z,13.40
2022-10-04T00:41:21.914Z,11.53
2022-10-04T00:44:21.698Z,8.97
2022-10-04T00:47:34.121Z,13.90
2022-10-04T00:50:44.200Z,10.40
2022-10-04T00:53:45.078Z,10.50
2022-10-04T00:56:44.122Z,8.87
2022-10-04T00:59:48.308Z,11.53
2022-10-04T01:02:38.285Z,15.17
2022-10-04T01:05:37.716Z,14.07
2022-10-04T01:08:39.066Z,14.57
2022-10-04T01:11:30.755Z,13.23
2022-10-04T01:14:31.582Z,9.57
2022-10-04T01:17:19.659Z,10.50
2022-10-04T01:20:46.818Z,11.27
2022-10-04T01:23:37.838Z,11.30
2022-10-04T01:26:32.298Z,10.77
2022-10-04T01:29:26.357Z,14.33
2022-10-04T01:32:13.369Z,10.63
2022-10-04T01:35:00.461Z,16.53
2022-10-04T01:37:47.553Z,14.37
2022-10-04T01:40:37.296Z,12.27
2022-10-04T01:43:32.058Z,13.83
2022-10-04T01:46:33.991Z,14.10
2022-10-04T01:49:26.509Z,14.63
2022-10-04T01:52:22.998Z,16.30
2022-10-04T01:55:21.409Z,10.33
2022-10-04T01:58:19.980Z,13.37
2022-10-04T02:01:16.166Z,11.47
2022-10-04T02:04:22.057Z,12.57
2022-10-04T02:07:15.107Z,11.87
2022-10-04T02:10:06.625Z,13.93
2022-10-04T02:12:55.362Z,10.17
2022-10-04T02:15:42.943Z,12.37
2022-10-04T02:18:34.420Z,12.93
2022-10-04T02:21:22.967Z,12.40
2022-10-04T02:24:12.240Z,15.73
2022-10-04T02:26:59.586Z,10.13
2022-10-04T02:29:46.691Z,14.90
2022-10-04T02:32:52.685Z,12.83
2022-10-04T02:35:48.093Z,12.93
2022-10-04T02:38:41.996Z,16.70
2022-10-04T02:41:40.348Z,15.83
2022-10-04T02:44:41.173Z,13.80
2022-10-04T02:47:37.950Z,15.43
2022-10-04T02:50:31.018Z,14.27
2022-10-04T02:53:52.696Z,18.13
2022-10-04T02:56:40.300Z,16.13
2022-10-04T02:59:29.913Z,13.47
2022-10-04T03:02:29.891Z,14.13
2022-10-04T03:05:17.673Z,14.97
2022-10-04T03:08:05.818Z,15.93
2022-10-04T03:10:52.868Z,18.33
2022-10-04T03:13:41.865Z,14.47
2022-10-04T03:16:36.507Z,20.63
2022-10-04T03:19:26.970Z,18.07
2022-10-04T03:22:14.012Z,15.47
2022-10-04T03:25:01.663Z,15.00
2022-10-04T03:27:51.146Z,15.77
2022-10-04T03:30:43.506Z,11.53
2022-10-04T03:33:31.093Z,15.73
2022-10-04T03:36:19.136Z,16.00
2022-10-04T03:39:10.886Z,15.47
2022-10-04T03:41:58.638Z,21.37
2022-10-04T03:44:47.463Z,14.20
2022-10-04T03:47:38.844Z,13.07
2022-10-04T03:50:33.917Z,14.00
2022-10-04T03:53:27.962Z,15.87
2022-10-04T03:56:26.838Z,13.17
2022-10-04T03:59:18.217Z,12.93
2022-10-04T04:02:13.708Z,14.37
2022-10-04T04:05:09.640Z,15.17
2022-10-04T04:08:12.448Z,12.40
2022-10-04T04:11:03.002Z,16.90
2022-10-04T04:13:54.142Z,13.20
2022-10-04T04:16:41.257Z,15.67
2022-10-04T04:19:28.803Z,14.27
2022-10-04T04:22:18.157Z,13.40
2022-10-04T04:25:11.694Z,19.20
2022-10-04T04:28:31.653Z,17.47
2022-10-04T04:31:23.802Z,14.77
2022-10-04T04:34:21.375Z,17.97
2022-10-04T04:37:10.795Z,20.53
2022-10-04T04:40:18.897Z,15.70
2022-10-04T04:43:06.057Z,18.17
2022-10-04T04:46:14.915Z,19.27
2022-10-04T04:49:05.776Z,16.70
2022-10-04T04:51:52.996Z,18.60
2022-10-04T04:54:40.055Z,21.57
2022-10-04T04:57:27.306Z,19.10
2022-10-04T05:00:20.540Z,16.77
2022-10-04T05:03:18.645Z,15.47
2022-10-04T05:06:23.070Z,17.97
2022-10-04T05:09:45.250Z,16.23
2022-10-04T05:12:32.593Z,16.80
2022-10-04T05:15:19.749Z,17.43
2022-10-04T05:18:30.274Z,18.23
2022-10-04T05:21:27.024Z,19.70
2022-10-04T05:24:31.393Z,13.20
2022-10-04T05:27:30.949Z,13.00
2022-10-04T05:30:47.667Z,14.93
2022-10-04T05:33:46.113Z,14.23
2022-10-04T05:36:47.377Z,14.73
2022-10-04T05:39:45.338Z,13.27
2022-10-04T05:42:45.246Z,11.87
2022-10-04T05:45:32.490Z,17.10
2022-10-04T05:48:19.792Z,15.77
2022-10-04T05:51:27.994Z,14.80
2022-10-04T05:54:22.149Z,10.87
2022-10-04T05:57:20.772Z,12.67
2022-10-04T06:00:16.256Z,17.57
2022-10-04T06:03:38.543Z,15.47
2022-10-04T06:06:37.330Z,16.43
2022-10-04T06:09:48.932Z,14.13
2022-10-04T06:12:44.567Z,12.03
2022-10-04T06:15:52.520Z,11.50
2022-10-04T06:18:42.321Z,14.00
2022-10-04T06:21:31.472Z,8.93
2022-10-04T06:24:27.559Z,13.40
2022-10-04T06:27:37.172Z,12.47
2022-10-04T06:30:24.986Z,12.67
2022-10-04T06:33:43.089Z,18.07
2022-10-04T06:36:42.242Z,22.93
2022-10-04T06:39:44.335Z,12.40
2022-10-04T06:42:34.188Z,9.47
2022-10-04T06:45:58.969Z,10.20
2022-10-04T06:48:56.873Z,15.53
2022-10-04T06:52:25.354Z,15.07
2022-10-04T06:55:34.133Z,9.47
2022-10-04T06:58:21.158Z,13.07
2022-10-04T07:01:10.873Z,13.27
2022-10-04T07:04:22.153Z,8.93
2022-10-04T07:07:36.514Z,13.47
2022-10-04T07:10:35.009Z,11.53
2022-10-04T07:13:27.911Z,10.93
2022-10-04T07:16:52.025Z,10.00
2022-10-04T07:19:48.348Z,11.50
2022-10-04T07:22:44.001Z,10.13
2022-10-04T07:25:48.914Z,8.00
2022-10-04T07:29:01.858Z,10.50
2022-10-04T07:32:08.295Z,12.57
2022-10-04T07:35:06.689Z,10.67
2022-10-04T07:38:11.074Z,13.87
2022-10-04T07:41:09.507Z,11.90
2022-10-04T07:44:16.154Z,8.10
2022-10-04T07:47:18.638Z,10.73
2022-10-04T07:50:28.690Z,12.00
2022-10-04T07:53:20.842Z,9.50
2022-10-04T07:56:13.759Z,10.77
2022-10-04T07:59:23.448Z,10.60
2022-10-04T08:02:47.563Z,8.80
2022-10-04T08:05:38.111Z,10.23
2022-10-04T08:08:37.782Z,11.03
2022-10-04T08:12:02.742Z,12.63
2022-10-04T08:15:14.354Z,7.43
2022-10-04T08:18:25.425Z,10.73
2022-10-04T08:21:26.904Z,8.77
2022-10-04T08:24:29.977Z,8.00
2022-10-04T08:27:28.765Z,11.10
2022-10-04T08:30:17.490Z,11.17
2022-10-04T08:33:23.769Z,9.77
2022-10-04T08:36:41.959Z,10.90
2022-10-04T08:39:39.358Z,8.30
2022-10-04T08:42:35.238Z,9.63
2022-10-04T08:45:43.842Z,10.53
2022-10-04T08:49:01.706Z,14.33
2022-10-04T08:52:26.121Z,9.60
2022-10-04T08:55:24.589Z,9.43
2022-10-04T08:58:41.266Z,6.87
2022-10-04T09:01:53.148Z,11.60
2022-10-04T09:05:31.236Z,9.87
2022-10-04T09:08:31.954Z,8.57
2022-10-04T09:11:26.545Z,11.73
2022-10-04T09:14:40.023Z,8.73
2022-10-04T09:18:01.802Z,10.70
2022-10-04T09:21:09.786Z,11.10
2022-10-04T09:24:36.104Z,12.10
2022-10-04T09:27:54.616Z,10.53
2022-10-04T09:31:27.981Z,11.47
2022-10-04T09:34:24.006Z,6.67
2022-10-04T09:37:42.706Z,10.33
2022-10-04T09:41:00.218Z,7.50
2022-10-04T09:44:13.799Z,10.90
2022-10-04T09:47:16.905Z,6.23
2022-10-04T09:50:07.264Z,9.27
2022-10-04T09:53:06.467Z,8.97
2022-10-04T09:56:11.549Z,8.07
2022-10-04T09:59:23.647Z,7.63
2022-10-04T10:02:24.412Z,9.87
2022-10-04T10:05:37.712Z,9.87
2022-10-04T10:08:31.619Z,6.70
2022-10-04T10:11:49.389Z,8.53
2022-10-04T10:15:09.244Z,7.67
2022-10-04T10:18:15.289Z,8.03
2022-10-04T10:21:51.978Z,7.90
2022-10-04T10:24:58.356Z,7.43
2022-10-04T10:28:19.355Z,6.07
2022-10-04T10:31:51.406Z,10.87
2022-10-04T10:34:44.576Z,6.67
2022-10-04T10:38:10.550Z,7.30
2022-10-04T10:41:28.257Z,5.37
2022-10-04T10:44:20.131Z,4.93
2022-10-04T10:47:31.100Z,6.13
2022-10-04T10:50:27.395Z,7.93
2022-10-04T10:53:17.327Z,4.03
2022-10-04T10:56:47.008Z,7.23
2022-10-04T11:00:06.475Z,7.00
2022-10-04T11:03:32.220Z,5.67
2022-10-04T11:07:02.968Z,5.63
2022-10-04T11:10:05.026Z,7.97
2022-10-04T11:12:54.961Z,4.00
2022-10-04T11:15:52.158Z,6.67
2022-10-04T11:19:16.031Z,6.57
2022-10-04T11:22:21.722Z,6.77
2022-10-04T11:25:25.325Z,7.27
2022-10-04T11:28:13.944Z,6.50
2022-10-04T11:31:47.922Z,8.97
2022-10-04T11:34:57.993Z,4.53
2022-10-04T11:38:17.697Z,4.87
2022-10-04T11:41:23.307Z,6.40
2022-10-04T11:44:31.195Z,6.60
2022-10-04T11:47:33.361Z,7.10
2022-10-04T11:50:55.174Z,13.20
2022-10-04T11:54:04.178Z,6.07
2022-10-04T11:57:25.370Z,8.33
2022-10-04T12:00:16.092Z,6.13
2022-10-04T12:03:24.694Z,7.80
2022-10-04T12:06:37.375Z,7.93
2022-10-04T12:09:36.894Z,7.70
2022-10-04T12:12:57.577Z,5.43
2022-10-04T12:16:02.626Z,5.40
2022-10-04T12:19:08.401Z,4.50
2022-10-04T12:22:18.514Z,6.17
2022-10-04T12:25:11.392Z,5.63
2022-10-04T12:28:30.636Z,5.33
2022-10-04T12:31:23.956Z,7.37
2022-10-04T12:34:14.650Z,9.50
2022-10-04T12:37:22.723Z,6.60
2022-10-04T12:40:09.611Z,5.57
2022-10-04T12:43:21.788Z,4.70
2022-10-04T12:46:27.858Z,7.60
2022-10-04T12:49:21.740Z,4.47
2022-10-04T12:52:08.589Z,5.27
2022-10-04T12:55:18.594Z,4.40
2022-10-04T12:58:56.067Z,5.53
2022-10-04T13:01:51.867Z,6.83
2022-10-04T13:04:47.708Z,3.77
2022-10-04T13:08:28.638Z,6.83
2022-10-04T13:11:26.134Z,5.50
2022-10-04T13:14:50.773Z,3.93
2022-10-04T13:17:50.157Z,5.63
2022-10-04T13:21:21.042Z,5.50
2022-10-04T13:24:58.093Z,6.43
2022-10-04T13:28:22.384Z,5.77
2022-10-04T13:31:32.912Z,4.47
2022-10-04T13:34:23.153Z,5.90
2022-10-04T13:37:20.511Z,5.20
2022-10-04T13:40:57.167Z,5.77
2022-10-04T13:44:08.122Z,5.40
2022-10-04T13:47:13.763Z,4.23
2022-10-04T13:50:28.321Z,5.23
2022-10-04T13:53:54.067Z,4.40
2022-10-04T13:57:01.386Z,7.47
2022-10-04T14:00:05.381Z,5.73
2022-10-04T14:02:52.335Z,3.67
2022-10-04T14:05:51.406Z,3.40
2022-10-04T14:08:56.627Z,6.43
2022-10-04T14:12:11.540Z,3.03
2022-10-04T14:14:58.401Z,5.70
2022-10-04T14:17:57.497Z,5.80
2022-10-04T14:21:02.858Z,3.87
2022-10-04T14:23:56.384Z,3.10
2022-10-04T14:26:55.554Z,3.83
2022-10-04T14:29:45.302Z,5.20
2022-10-04T14:32:38.337Z,3.93
2022-10-04T14:35:47.286Z,6.20
2022-10-04T14:39:06.500Z,5.37
2022-10-04T14:42:21.821Z,5.80
2022-10-04T14:45:26.520Z,5.77
2022-10-04T14:48:31.838Z,4.07
2022-10-04T14:51:57.061Z,5.27
2022-10-04T14:55:07.899Z,4.60
2022-10-04T14:58:13.490Z,3.90
2022-10-04T15:01:03.459Z,4.30
2022-10-04T15:04:13.983Z,4.63
2022-10-04T15:07:16.955Z,4.93
2022-10-04T15:10:37.797Z,3.17
2022-10-04T15:13:27.654Z,6.20
2022-10-04T15:16:33.626Z,4.67
2022-10-04T15:19:20.805Z,3.67
2022-10-04T15:22:43.422Z,3.90
2022-10-04T15:26:01.058Z,4.57
2022-10-04T15:28:52.161Z,5.53
2022-10-04T15:32:19.511Z,4.37
2022-10-04T15:35:27.750Z,7.20
2022-10-04T15:38:53.820Z,5.93
2022-10-04T15:42:08.600Z,5.83
2022-10-04T15:45:00.734Z,4.03
2022-10-04T15:48:04.704Z,5.20
2022-10-04T15:51:04.236Z,3.23
2022-10-04T15:54:18.506Z,6.60
2022-10-04T15:57:43.873Z,7.23
2022-10-04T16:00:45.717Z,10.20
2022-10-04T16:03:51.725Z,6.07
2022-10-04T16:06:58.238Z,7.00
2022-10-04T16:10:18.941Z,5.33
2022-10-04T16:13:30.766Z,5.60
2022-10-04T16:16:17.844Z,3.97
2022-10-04T16:19:15.112Z,5.23
2022-10-04T16:22:09.716Z,4.43
2022-10-04T16:25:25.715Z,3.93
2022-10-04T16:28:29.687Z,4.57
2022-10-04T16:31:23.349Z,5.50
2022-10-04T16:34:15.674Z,7.30
2022-10-04T16:37:20.522Z,7.03
2022-10-04T16:40:12.559Z,5.70
2022-10-04T16:43:06.301Z,4.27
2022-10-04T16:46:17.859Z,5.70
2022-10-04T16:49:49.255Z,7.17
2022-10-04T16:53:09.796Z,5.33
2022-10-04T16:55:58.045Z,9.50
2022-10-04T16:59:06.109Z,5.93
2022-10-04T17:02:25.422Z,8.03
2022-10-04T17:05:47.415Z,8.37
2022-10-04T17:08:52.899Z,5.83
2022-10-04T17:12:06.055Z,6.20
2022-10-04T17:15:02.040Z,5.83
2022-10-04T17:18:26.140Z,8.43
2022-10-04T17:21:23.796Z,6.40
2022-10-04T17:24:22.961Z,7.50
2022-10-04T17:27:45.251Z,7.47
2022-10-04T17:31:07.072Z,10.40
2022-10-04T17:34:14.406Z,9.07
2022-10-04T17:37:20.498Z,8.57
2022-10-04T17:40:13.511Z,9.73
2022-10-04T17:43:15.664Z,5.87
2022-10-04T17:46:12.583Z,5.40
2022-10-04T17:49:47.549Z,6.93
2022-10-04T17:53:06.579Z,8.03
2022-10-04T17:56:00.955Z,9.53
2022-10-04T17:58:53.977Z,8.00
2022-10-04T18:02:00.556Z,8.63
2022-10-04T18:04:56.861Z,11.00
2022-10-04T18:08:21.285Z,9.57
2022-10-04T18:11:41.971Z,7.17
2022-10-04T18:14:55.736Z,8.70
2022-10-04T18:17:46.623Z,8.83
2022-10-04T18:21:05.895Z,8.97
2022-10-04T18:24:19.978Z,9.73
2022-10-04T18:27:26.912Z,11.90
2022-10-04T18:30:17.486Z,11.87
2022-10-04T18:33:15.392Z,12.50
2022-10-04T18:36:18.257Z,12.10
2022-10-04T18:39:11.755Z,9.70
2022-10-04T18:42:32.289Z,8.63
2022-10-04T18:45:23.815Z,9.67
2022-10-04T18:48:18.750Z,11.83
2022-10-04T18:51:41.930Z,8.37
2022-10-04T18:54:38.389Z,12.10
2022-10-04T18:58:06.475Z,11.53
2022-10-04T19:01:25.418Z,10.17
2022-10-04T19:04:42.967Z,10.20
2022-10-04T19:07:29.913Z,11.83
2022-10-04T19:10:32.508Z,9.77
2022-10-04T19:13:38.406Z,10.27
2022-10-04T19:16:31.511Z,11.97
2022-10-04T19:19:37.391Z,9.00
2022-10-04T19:23:08.188Z,11.90
2022-10-04T19:26:31.701Z,10.13
2022-10-04T19:29:42.373Z,11.30
2022-10-04T19:32:59.659Z,11.37
2022-10-04T19:36:06.630Z,13.60
2022-10-04T19:39:19.630Z,9.47
2022-10-04T19:42:14.925Z,11.30
2022-10-04T19:45:25.067Z,11.33
2022-10-04T19:48:25.683Z,11.10
2022-10-04T19:51:37.492Z,10.97
2022-10-04T19:54:32.339Z,10.47
2022-10-04T19:57:30.033Z,14.07
2022-10-04T20:00:20.176Z,11.90
2022-10-04T20:03:12.629Z,15.60
2022-10-04T20:05:59.991Z,10.10
2022-10-04T20:09:02.703Z,12.53
2022-10-04T20:11:52.589Z,10.57
2022-10-04T20:14:40.934Z,13.17
2022-10-04T20:17:32.941Z,10.00
2022-10-04T20:20:40.409Z,12.67
2022-10-04T20:23:39.354Z,11.40
2022-10-04T20:26:54.123Z,10.50
2022-10-04T20:29:41.775Z,10.77
2022-10-04T20:32:36.394Z,12.90
2022-10-04T20:36:02.624Z,11.03
2022-10-04T20:38:55.242Z,13.30
2022-10-04T20:42:01.715Z,12.93
2022-10-04T20:44:55.964Z,10.67
2022-10-04T20:47:47.993Z,13.57
2022-10-04T20:50:43.272Z,11.83
2022-10-04T20:53:32.336Z,12.83
2022-10-04T20:56:21.154Z,12.40
2022-10-04T20:59:15.580Z,12.13
2022-10-04T21:02:10.577Z,12.47
2022-10-04T21:05:16.182Z,10.30
2022-10-04T21:08:14.743Z,13.63
2022-10-04T21:11:16.782Z,13.23
2022-10-04T21:14:06.387Z,14.20
2022-10-04T21:17:02.342Z,10.63
2022-10-04T21:19:50.579Z,12.43
2022-10-04T21:22:38.746Z,9.73
2022-10-04T21:25:31.557Z,12.43
2022-10-04T21:28:31.062Z,13.73
2022-10-04T21:31:18.174Z,11.93
2022-10-04T21:34:05.390Z,12.03
2022-10-04T21:36:52.985Z,9.10
2022-10-04T21:39:40.279Z,9.40
2022-10-04T21:42:27.482Z,8.80
2022-10-04T21:45:14.409Z,8.70
2022-10-04T21:48:01.458Z,8.87
2022-10-04T21:50:49.677Z,9.47
2022-10-04T21:53:36.608Z,8.80
2022-10-04T21:56:23.682Z,8.33
2022-10-04T21:59:10.697Z,10.13
2022-10-04T22:01:57.640Z,11.07
2022-10-04T22:04:45.070Z,7.47
2022-10-04T22:07:31.975Z,9.90
2022-10-04T22:10:18.934Z,10.60
2022-10-04T22:13:06.503Z,11.03
2022-10-04T22:15:53.557Z,8.63
2022-10-04T22:18:40.573Z,9.17
2022-10-04T22:21:27.565Z,11.40
2022-10-04T22:24:18.794Z,11.87
2022-10-04T22:27:14.973Z,11.70
2022-10-04T22:30:01.941Z,10.53
2022-10-04T22:32:50.492Z,11.00
2022-10-04T22:35:37.457Z,13.13
2022-10-04T22:38:24.543Z,9.87
2022-10-04T22:41:18.710Z,10.67
2022-10-04T22:44:23.908Z,9.87
2022-10-04T22:47:15.806Z,9.80
2022-10-04T22:50:02.972Z,11.00
2022-10-04T22:52:49.899Z,11.43
2022-10-04T22:55:36.991Z,8.63
2022-10-04T22:58:24.283Z,12.93
2022-10-04T23:01:16.143Z,12.13
2022-10-04T23:04:04.668Z,10.53
2022-10-04T23:06:53.260Z,9.47
2022-10-04T23:09:41.495Z,12.47
2022-10-04T23:12:28.448Z,12.37
2022-10-04T23:15:18.094Z,12.10
2022-10-04T23:18:15.851Z,10.03
2022-10-04T23:21:03.455Z,11.10
2022-10-04T23:23:53.037Z,13.57
2022-10-04T23:26:41.209Z,10.67
2022-10-04T23:29:31.789Z,9.10
2022-10-04T23:32:19.347Z,8.10
2022-10-04T23:35:15.974Z,7.47
2022-10-04T23:38:07.311Z,10.03
2022-10-04T23:40:54.354Z,10.70
2022-10-04T23:43:41.412Z,7.47
2022-10-04T23:46:30.382Z,8.30
2022-10-04T23:49:19.943Z,7.20
2022-10-04T23:52:14.458Z,11.37
2022-10-04T23:55:02.670Z,6.83
2022-10-04T23:57:50.493Z,8.87
